sensor_id;sensor_type;location;lat;lon;timestamp;pressure;altitude;pressure_sealevel;temperature
61189;BMP280;47054;39.716;2.904;2023-06-26T00:01:36;100535.06;;;28.34
61189;BMP280;47054;39.716;2.904;2023-06-26T00:04:22;100535.63;;;28.29
61189;BMP280;47054;39.716;2.904;2023-06-26T00:07:07;100529.06;;;28.26
61189;BMP280;47054;39.716;2.904;2023-06-26T00:09:52;100525.59;;;28.26
61189;BMP280;47054;39.716;2.904;2023-06-26T00:12:38;100519.03;;;28.23
61189;BMP280;47054;39.716;2.904;2023-06-26T00:15:23;100512.81;;;28.23
61189;BMP280;47054;39.716;2.904;2023-06-26T00:18:08;100516.75;;;28.22
61189;BMP280;47054;39.716;2.904;2023-06-26T00:20:53;100514.03;;;28.22
61189;BMP280;47054;39.716;2.904;2023-06-26T00:23:38;100515.53;;;28.23
61189;BMP280;47054;39.716;2.904;2023-06-26T00:26:24;100512.38;;;28.24
61189;BMP280;47054;39.716;2.904;2023-06-26T00:29:09;100501.91;;;28.23
61189;BMP280;47054;39.716;2.904;2023-06-26T00:31:54;100503.44;;;28.24
61189;BMP280;47054;39.716;2.904;2023-06-26T00:34:39;100498.56;;;28.19
61189;BMP280;47054;39.716;2.904;2023-06-26T00:37:27;100504.88;;;28.16
61189;BMP280;47054;39.716;2.904;2023-06-26T00:40:12;100501.16;;;28.10
61189;BMP280;47054;39.716;2.904;2023-06-26T00:42:57;100493.56;;;28.05
61189;BMP280;47054;39.716;2.904;2023-06-26T00:45:42;100469.47;;;27.91
61189;BMP280;47054;39.716;2.904;2023-06-26T00:48:27;100483.19;;;28.00
61189;BMP280;47054;39.716;2.904;2023-06-26T00:51:12;100470.75;;;27.99
61189;BMP280;47054;39.716;2.904;2023-06-26T00:53:57;100482.41;;;27.99
61189;BMP280;47054;39.716;2.904;2023-06-26T00:56:43;100466.50;;;27.98
61189;BMP280;47054;39.716;2.904;2023-06-26T00:59:29;100464.09;;;28.00
61189;BMP280;47054;39.716;2.904;2023-06-26T01:02:18;100468.34;;;28.01
61189;BMP280;47054;39.716;2.904;2023-06-26T01:05:05;100467.91;;;28.02
61189;BMP280;47054;39.716;2.904;2023-06-26T01:07:53;100467.16;;;28.02
61189;BMP280;47054;39.716;2.904;2023-06-26T01:10:39;100471.84;;;28.01
61189;BMP280;47054;39.716;2.904;2023-06-26T01:13:26;100469.91;;;28.02
61189;BMP280;47054;39.716;2.904;2023-06-26T01:16:12;100466.41;;;28.01
61189;BMP280;47054;39.716;2.904;2023-06-26T01:18:58;100469.91;;;28.02
61189;BMP280;47054;39.716;2.904;2023-06-26T01:21:45;100473.81;;;28.01
61189;BMP280;47054;39.716;2.904;2023-06-26T01:24:35;100464.44;;;28.02
61189;BMP280;47054;39.716;2.904;2023-06-26T01:27:22;100469.91;;;28.02
61189;BMP280;47054;39.716;2.904;2023-06-26T01:30:08;100478.06;;;28.02
61189;BMP280;47054;39.716;2.904;2023-06-26T01:32:53;100472.63;;;28.02
61189;BMP280;47054;39.716;2.904;2023-06-26T01:35:40;100473.38;;;28.02
61189;BMP280;47054;39.716;2.904;2023-06-26T01:38:25;100478.06;;;28.02
61189;BMP280;47054;39.716;2.904;2023-06-26T01:41:10;100469.13;;;28.01
61189;BMP280;47054;39.716;2.904;2023-06-26T01:52:41;100469.56;;;28.00
61189;BMP280;47054;39.716;2.904;2023-06-26T01:55:51;100455.50;;;28.01
61189;BMP280;47054;39.716;2.904;2023-06-26T01:58:40;100460.28;;;27.97
61189;BMP280;47054;39.716;2.904;2023-06-26T02:01:27;100458.78;;;27.96
61189;BMP280;47054;39.716;2.904;2023-06-26T02:04:12;100457.69;;;27.94
61189;BMP280;47054;39.716;2.904;2023-06-26T02:06:58;100460.72;;;27.96
61189;BMP280;47054;39.716;2.904;2023-06-26T02:09:43;100463.44;;;27.96
61189;BMP280;47054;39.716;2.904;2023-06-26T02:12:28;100456.38;;;27.98
61189;BMP280;47054;39.716;2.904;2023-06-26T02:15:13;100451.66;;;27.99
61189;BMP280;47054;39.716;2.904;2023-06-26T02:17:59;100461.81;;;27.98
61189;BMP280;47054;39.716;2.904;2023-06-26T19:33:26;100508.84;;;29.96
61189;BMP280;47054;39.716;2.904;2023-06-26T19:36:12;100515.91;;;30.24
61189;BMP280;47054;39.716;2.904;2023-06-26T19:38:58;100508.66;;;30.48
61189;BMP280;47054;39.716;2.904;2023-06-26T19:41:43;100521.13;;;30.67
61189;BMP280;47054;39.716;2.904;2023-06-26T19:44:28;100514.72;;;30.79
61189;BMP280;47054;39.716;2.904;2023-06-26T19:47:12;100526.16;;;30.87
61189;BMP280;47054;39.716;2.904;2023-06-26T19:49:57;100528.13;;;30.96
61189;BMP280;47054;39.716;2.904;2023-06-26T19:52:41;100519.72;;;30.99
61189;BMP280;47054;39.716;2.904;2023-06-26T19:55:26;100528.56;;;31.03
61189;BMP280;47054;39.716;2.904;2023-06-26T19:58:11;100532.81;;;31.04
61189;BMP280;47054;39.716;2.904;2023-06-26T20:00:55;100525.81;;;31.03
61189;BMP280;47054;39.716;2.904;2023-06-26T20:03:40;100523.84;;;31.04
61189;BMP280;47054;39.716;2.904;2023-06-26T20:06:25;100531.00;;;31.01
61189;BMP280;47054;39.716;2.904;2023-06-26T20:09:10;100534.94;;;31.00
61189;BMP280;47054;39.716;2.904;2023-06-26T20:11:55;100537.41;;;30.98
61189;BMP280;47054;39.716;2.904;2023-06-26T20:14:40;100536.00;;;30.94
61189;BMP280;47054;39.716;2.904;2023-06-26T20:17:25;100532.22;;;30.91
61189;BMP280;47054;39.716;2.904;2023-06-26T20:20:10;100544.09;;;30.88
61189;BMP280;47054;39.716;2.904;2023-06-26T20:22:54;100545.75;;;30.86
61189;BMP280;47054;39.716;2.904;2023-06-26T20:25:40;100550.94;;;30.84
61189;BMP280;47054;39.716;2.904;2023-06-26T20:28:26;100549.88;;;30.81
61189;BMP280;47054;39.716;2.904;2023-06-26T20:31:10;100557.34;;;30.81
61189;BMP280;47054;39.716;2.904;2023-06-26T20:33:55;100558.53;;;30.79
61189;BMP280;47054;39.716;2.904;2023-06-26T20:36:39;100566.00;;;30.79
61189;BMP280;47054;39.716;2.904;2023-06-26T20:39:23;100563.72;;;30.77
61189;BMP280;47054;39.716;2.904;2023-06-26T20:42:10;100564.94;;;30.76
61189;BMP280;47054;39.716;2.904;2023-06-26T20:44:56;100555.66;;;30.74
61189;BMP280;47054;39.716;2.904;2023-06-26T20:47:44;100568.44;;;30.77
61189;BMP280;47054;39.716;2.904;2023-06-26T20:50:30;100572.22;;;30.79
61189;BMP280;47054;39.716;2.904;2023-06-26T20:53:15;100577.28;;;30.81
61189;BMP280;47054;39.716;2.904;2023-06-26T20:56:00;100563.09;;;30.83
61189;BMP280;47054;39.716;2.904;2023-06-26T20:58:45;100566.19;;;30.85
61189;BMP280;47054;39.716;2.904;2023-06-26T21:01:29;100557.19;;;30.84
61189;BMP280;47054;39.716;2.904;2023-06-26T21:04:14;100564.91;;;30.86
61189;BMP280;47054;39.716;2.904;2023-06-26T21:06:59;100558.69;;;30.85
61189;BMP280;47054;39.716;2.904;2023-06-26T21:09:47;100562.50;;;30.88
61189;BMP280;47054;39.716;2.904;2023-06-26T21:12:32;100567.22;;;30.87
61189;BMP280;47054;39.716;2.904;2023-06-26T21:15:17;100566.47;;;30.87
61189;BMP280;47054;39.716;2.904;2023-06-26T21:18:01;100571.94;;;30.87
61189;BMP280;47054;39.716;2.904;2023-06-26T21:20:46;100564.50;;;30.87
61189;BMP280;47054;39.716;2.904;2023-06-26T21:23:30;100559.75;;;30.88
61189;BMP280;47054;39.716;2.904;2023-06-26T21:26:14;100558.53;;;30.89
61189;BMP280;47054;39.716;2.904;2023-06-26T21:28:59;100558.25;;;30.87
61189;BMP280;47054;39.716;2.904;2023-06-26T21:31:43;100555.06;;;30.88
61189;BMP280;47054;39.716;2.904;2023-06-26T21:34:28;100567.97;;;30.88
61189;BMP280;47054;39.716;2.904;2023-06-26T21:37:12;100559.31;;;30.89
61189;BMP280;47054;39.716;2.904;2023-06-26T21:39:57;100555.38;;;30.90
61189;BMP280;47054;39.716;2.904;2023-06-26T21:42:41;100565.09;;;30.91
61189;BMP280;47054;39.716;2.904;2023-06-26T21:45:25;100556.41;;;30.93
61189;BMP280;47054;39.716;2.904;2023-06-26T21:48:10;100554.00;;;30.95
61189;BMP280;47054;39.716;2.904;2023-06-26T21:50:56;100554.41;;;30.93
61189;BMP280;47054;39.716;2.904;2023-06-26T21:53:40;100546.19;;;30.93
61189;BMP280;47054;39.716;2.904;2023-06-26T21:56:25;100550.94;;;30.93
61189;BMP280;47054;39.716;2.904;2023-06-26T21:59:10;100545.47;;;30.93
61189;BMP280;47054;39.716;2.904;2023-06-26T22:01:54;100538.47;;;30.92
61189;BMP280;47054;39.716;2.904;2023-06-26T22:04:38;100537.38;;;30.89
61189;BMP280;47054;39.716;2.904;2023-06-26T22:07:23;100530.09;;;30.86
61189;BMP280;47054;39.716;2.904;2023-06-26T22:10:08;100541.97;;;30.83
61189;BMP280;47054;39.716;2.904;2023-06-26T22:12:53;100546.84;;;30.79
61189;BMP280;47054;39.716;2.904;2023-06-26T22:15:37;100549.25;;;30.77
61189;BMP280;47054;39.716;2.904;2023-06-26T22:18:21;100546.22;;;30.75
61189;BMP280;47054;39.716;2.904;2023-06-26T22:21:06;100546.22;;;30.75
61189;BMP280;47054;39.716;2.904;2023-06-26T22:23:51;100539.41;;;30.70
61189;BMP280;47054;39.716;2.904;2023-06-26T22:26:36;100533.75;;;30.65
61189;BMP280;47054;39.716;2.904;2023-06-26T22:29:21;100541.19;;;30.55
61189;BMP280;47054;39.716;2.904;2023-06-26T22:32:06;100533.44;;;30.45
61189;BMP280;47054;39.716;2.904;2023-06-26T22:34:51;100539.34;;;30.34
61189;BMP280;47054;39.716;2.904;2023-06-26T22:37:35;100527.31;;;30.23
61189;BMP280;47054;39.716;2.904;2023-06-26T22:40:20;100520.00;;;30.11
61189;BMP280;47054;39.716;2.904;2023-06-26T22:43:05;100524.84;;;29.98
61189;BMP280;47054;39.716;2.904;2023-06-26T22:45:51;100522.94;;;29.86
61189;BMP280;47054;39.716;2.904;2023-06-26T22:48:37;100522.59;;;29.75
61189;BMP280;47054;39.716;2.904;2023-06-26T22:51:22;100527.75;;;29.64
61189;BMP280;47054;39.716;2.904;2023-06-26T22:54:06;100533.47;;;29.57
61189;BMP280;47054;39.716;2.904;2023-06-26T22:56:50;100523.44;;;29.54
61189;BMP280;47054;39.716;2.904;2023-06-26T22:59:35;100513.84;;;29.49
61189;BMP280;47054;39.716;2.904;2023-06-26T23:02:20;100517.91;;;29.45
61189;BMP280;47054;39.716;2.904;2023-06-26T23:05:06;100508.63;;;29.42
61189;BMP280;47054;39.716;2.904;2023-06-26T23:07:51;100513.50;;;29.38
61189;BMP280;47054;39.716;2.904;2023-06-26T23:10:36;100510.09;;;29.34
61189;BMP280;47054;39.716;2.904;2023-06-26T23:13:21;100505.38;;;29.26
61189;BMP280;47054;39.716;2.904;2023-06-26T23:16:06;100511.59;;;29.26
61189;BMP280;47054;39.716;2.904;2023-06-26T23:18:50;100514.13;;;29.21
61189;BMP280;47054;39.716;2.904;2023-06-26T23:21:35;100505.28;;;29.17
61189;BMP280;47054;39.716;2.904;2023-06-26T23:24:20;100503.16;;;29.12
61189;BMP280;47054;39.716;2.904;2023-06-26T23:27:08;100500.56;;;29.08
61189;BMP280;47054;39.716;2.904;2023-06-26T23:29:52;100500.34;;;29.02
61189;BMP280;47054;39.716;2.904;2023-06-26T23:32:38;100498.94;;;28.98
61189;BMP280;47054;39.716;2.904;2023-06-26T23:35:25;100497.84;;;28.95
61189;BMP280;47054;39.716;2.904;2023-06-26T23:38:10;100498.00;;;28.92
61189;BMP280;47054;39.716;2.904;2023-06-26T23:40:54;100503.91;;;28.90
61189;BMP280;47054;39.716;2.904;2023-06-26T23:43:39;100511.78;;;28.88
61189;BMP280;47054;39.716;2.904;2023-06-26T23:46:24;100512.22;;;28.87
61189;BMP280;47054;39.716;2.904;2023-06-26T23:49:12;100510.38;;;28.84
61189;BMP280;47054;39.716;2.904;2023-06-26T23:51:57;100514.72;;;28.81
61189;BMP280;47054;39.716;2.904;2023-06-26T23:54:42;100497.50;;;28.84
61189;BMP280;47054;39.716;2.904;2023-06-26T23:57:27;100505.69;;;28.84
